Time;durP1;ratioP1;P1;durP2;ratioP2;P2;SDS_P1;SDS_P2;PMS_P1;PMS_P2;Temp;Humidity;BMP_temperature;BMP_pressure;BME280_temperature;BME280_humidity;BME280_pressure;Samples;Min_cycle;Max_cycle;Signal;HPM_P1;HPM_P2
2024/01/23 00:01:12;;;;;;;1.55;0.98;;;12.30;62.10;;;;;;5067143;28;20447;-73
2024/01/23 00:03:41;;;;;;;4.00;1.60;;;12.20;61.90;;;;;;5086717;28;20071;-72
2024/01/23 00:06:10;;;;;;;2.65;1.85;;;12.20;61.80;;;;;;5072556;28;20109;-76
2024/01/23 00:08:39;;;;;;;11.80;2.95;;;12.10;61.70;;;;;;5079983;28;20044;-72
2024/01/23 00:11:07;;;;;;;13.23;5.88;;;12.00;61.70;;;;;;5084234;28;20077;-70
2024/01/23 00:13:35;;;;;;;18.70;6.70;;;12.00;61.90;;;;;;5073623;28;20624;-72
2024/01/23 00:16:04;;;;;;;7.20;3.72;;;12.10;61.80;;;;;;5075879;28;20064;-70
2024/01/23 00:18:32;;;;;;;10.05;3.08;;;12.10;61.60;;;;;;5070633;28;20060;-71
2024/01/23 00:21:01;;;;;;;5.82;2.95;;;12.00;61.50;;;;;;5066690;28;20701;-72
2024/01/23 00:23:30;;;;;;;4.20;2.35;;;12.00;61.60;;;;;;5067806;28;20149;-72
2024/01/23 00:25:59;;;;;;;31.83;9.05;;;12.00;61.70;;;;;;5086088;28;20050;-73
2024/01/23 00:28:27;;;;;;;6.18;2.10;;;12.00;61.50;;;;;;5078388;28;20063;-69
2024/01/23 00:30:56;;;;;;;8.02;3.22;;;11.90;61.50;;;;;;5075224;28;20413;-68
2024/01/23 00:33:24;;;;;;;10.05;4.43;;;11.90;61.40;;;;;;5076779;28;20527;-71
2024/01/23 00:35:52;;;;;;;12.35;7.38;;;11.90;61.20;;;;;;5078884;28;20310;-70
2024/01/23 00:38:21;;;;;;;28.50;8.93;;;11.80;61.00;;;;;;5077425;28;20060;-69
2024/01/23 00:40:50;;;;;;;27.13;8.90;;;11.60;61.00;;;;;;5080152;28;20052;-71
2024/01/23 00:43:19;;;;;;;7.13;4.93;;;11.50;61.10;;;;;;5083867;27;20066;-71
2024/01/23 00:45:47;;;;;;;22.83;7.28;;;11.40;61.10;;;;;;5075065;28;20062;-71
2024/01/23 00:48:18;;;;;;;8.82;3.25;;;11.40;61.10;;;;;;5075791;28;20126;-72
2024/01/23 00:50:47;;;;;;;5.55;3.53;;;11.30;61.10;;;;;;5071068;28;20056;-72
2024/01/23 00:53:16;;;;;;;8.55;4.35;;;11.30;61.30;;;;;;5062430;28;20046;-71
2024/01/23 00:55:44;;;;;;;27.55;5.95;;;11.30;61.40;;;;;;5077325;28;20832;-69
2024/01/23 00:58:14;;;;;;;7.55;3.08;;;11.30;61.50;;;;;;5079776;28;20063;-69
2024/01/23 01:00:44;;;;;;;14.38;4.65;;;11.40;61.40;;;;;;5073708;28;20059;-70
2024/01/23 01:03:13;;;;;;;15.30;6.45;;;11.40;61.30;;;;;;5079294;28;20063;-71
2024/01/23 01:05:42;;;;;;;7.70;3.17;;;11.50;61.40;;;;;;5063373;28;20106;-70
2024/01/23 01:08:11;;;;;;;16.40;2.28;;;11.60;61.20;;;;;;5066054;28;20153;-72
2024/01/23 01:10:39;;;;;;;6.03;2.40;;;11.70;61.40;;;;;;5081729;28;20135;-71
2024/01/23 01:13:09;;;;;;;3.13;1.60;;;11.70;61.00;;;;;;5069245;28;20617;-70
2024/01/23 01:15:39;;;;;;;11.15;3.42;;;11.80;60.80;;;;;;5071735;28;20047;-68
2024/01/23 01:18:07;;;;;;;10.70;2.95;;;11.80;60.60;;;;;;5071435;28;20689;-72
2024/01/23 01:20:36;;;;;;;5.72;1.80;;;11.90;60.70;;;;;;5073887;28;20138;-69
2024/01/23 01:23:04;;;;;;;7.13;2.20;;;11.90;60.50;;;;;;5067505;28;20681;-68
2024/01/23 01:25:33;;;;;;;17.83;5.63;;;11.90;60.40;;;;;;5078476;28;20059;-70
2024/01/23 01:28:02;;;;;;;8.50;2.60;;;11.80;60.30;;;;;;5072959;28;20133;-68
2024/01/23 01:30:30;;;;;;;7.18;2.58;;;11.80;61.10;;;;;;5072292;28;20501;-80
2024/01/23 01:33:00;;;;;;;2.72;2.10;;;11.80;60.20;;;;;;5061273;28;20083;-71
2024/01/23 01:35:28;;;;;;;4.20;1.83;;;11.80;60.10;;;;;;5067577;28;20080;-70
2024/01/23 01:37:56;;;;;;;9.45;1.80;;;11.80;60.20;;;;;;5064258;28;20048;-70
2024/01/23 01:40:26;;;;;;;1.75;0.93;;;11.80;60.40;;;;;;5073726;28;20052;-69
2024/01/23 01:42:54;;;;;;;2.22;0.68;;;11.80;60.90;;;;;;5070729;28;20130;-70
2024/01/23 01:45:22;;;;;;;2.22;0.70;;;11.90;60.70;;;;;;5083447;28;20060;-69
2024/01/23 01:47:51;;;;;;;10.15;3.28;;;12.00;60.70;;;;;;5077122;28;20060;-70
2024/01/23 01:50:21;;;;;;;6.13;1.77;;;12.00;60.70;;;;;;5074519;28;20045;-70
2024/01/23 01:52:50;;;;;;;3.33;0.70;;;12.10;60.60;;;;;;5075183;28;20071;-70
2024/01/23 01:55:19;;;;;;;2.05;1.05;;;12.20;60.60;;;;;;5066300;28;20068;-71
2024/01/23 01:57:47;;;;;;;4.95;1.83;;;12.20;60.70;;;;;;5076443;28;20079;-71
2024/01/23 02:00:16;;;;;;;0.85;0.55;;;12.20;60.80;;;;;;5079467;28;20056;-69
2024/01/23 02:02:47;;;;;;;3.92;0.80;;;12.30;60.70;;;;;;5073679;28;20064;-70
2024/01/23 02:05:16;;;;;;;3.42;0.60;;;12.30;60.60;;;;;;5064158;28;20052;-70
2024/01/23 02:07:47;;;;;;;1.58;0.65;;;12.30;60.50;;;;;;5073021;28;20052;-69
2024/01/23 02:10:16;;;;;;;15.20;1.17;;;12.40;60.50;;;;;;5095084;28;20106;-70
2024/01/23 02:12:44;;;;;;;0.25;0.25;;;12.40;60.40;;;;;;5068097;28;20075;-73
2024/01/23 02:15:13;;;;;;;0.73;0.45;;;12.40;60.20;;;;;;5064039;28;20052;-71
2024/01/23 02:17:41;;;;;;;2.40;1.30;;;12.40;60.00;;;;;;5070124;28;20481;-73
2024/01/23 02:20:10;;;;;;;9.40;0.82;;;12.30;59.80;;;;;;5073866;28;20462;-71
2024/01/23 02:22:39;;;;;;;1.58;0.90;;;12.20;59.70;;;;;;5069530;28;20055;-73
2024/01/23 02:25:09;;;;;;;15.23;2.35;;;12.20;59.70;;;;;;5081091;28;20052;-72
2024/01/23 02:27:37;;;;;;;0.82;0.60;;;12.20;59.70;;;;;;5071960;28;20969;-83
2024/01/23 02:30:07;;;;;;;3.17;1.13;;;12.20;59.60;;;;;;5073830;28;20426;-72
2024/01/23 02:32:35;;;;;;;3.47;1.70;;;12.30;59.60;;;;;;5072786;28;20048;-73
2024/01/23 02:35:03;;;;;;;2.10;0.68;;;12.30;59.40;;;;;;5070633;28;20056;-71
2024/01/23 02:37:32;;;;;;;1.50;0.80;;;12.30;59.20;;;;;;5073570;28;20298;-74
2024/01/23 02:40:00;;;;;;;1.52;0.60;;;12.40;59.10;;;;;;5076509;28;20064;-74
2024/01/23 02:42:30;;;;;;;5.57;1.17;;;12.30;58.90;;;;;;5076444;28;20048;-72
2024/01/23 02:44:58;;;;;;;1.40;0.40;;;12.30;59.10;;;;;;5071513;28;20075;-74
2024/01/23 02:47:26;;;;;;;12.10;1.08;;;12.10;58.50;;;;;;5068491;28;20051;-72
2024/01/23 02:49:55;;;;;;;2.97;1.55;;;12.00;58.50;;;;;;5074652;28;20108;-74
2024/01/23 02:52:25;;;;;;;0.90;0.60;;;12.00;58.60;;;;;;5071859;28;20139;-75
2024/01/23 02:54:53;;;;;;;2.50;0.70;;;12.00;58.60;;;;;;5078625;28;20056;-73
2024/01/23 02:57:21;;;;;;;3.00;0.90;;;11.90;58.60;;;;;;5087152;27;20044;-75
2024/01/23 02:59:51;;;;;;;1.80;0.52;;;11.80;58.50;;;;;;5076114;28;20059;-74
2024/01/23 03:02:20;;;;;;;1.10;0.68;;;11.80;58.50;;;;;;5086970;28;20129;-85
2024/01/23 03:04:48;;;;;;;3.42;1.55;;;11.80;58.50;;;;;;5067627;28;20064;-72
2024/01/23 03:07:17;;;;;;;0.63;0.63;;;11.80;58.50;;;;;;5076353;28;20059;-75
2024/01/23 03:09:46;;;;;;;5.18;1.67;;;11.80;59.20;;;;;;5067845;28;20134;-77
2024/01/23 03:12:15;;;;;;;18.05;4.47;;;11.90;58.50;;;;;;5079236;28;20521;-75
2024/01/23 03:14:45;;;;;;;6.47;2.00;;;12.00;58.50;;;;;;5067324;28;20048;-74
2024/01/23 03:17:15;;;;;;;2.85;1.17;;;12.10;58.40;;;;;;5075200;28;20712;-74
2024/01/23 03:19:45;;;;;;;1.45;0.82;;;12.20;58.30;;;;;;5082321;28;20052;-77
2024/01/23 03:22:14;;;;;;;1.17;0.68;;;12.20;58.10;;;;;;5076561;28;20050;-77
2024/01/23 03:24:42;;;;;;;1.60;0.80;;;12.30;58.10;;;;;;5082474;28;20455;-76
2024/01/23 03:27:10;;;;;;;0.77;0.60;;;12.40;58.00;;;;;;5077231;28;20064;-75
2024/01/23 03:29:43;;;;;;;2.75;0.68;;;12.40;57.90;;;;;;5071682;28;20457;-76
2024/01/23 03:32:12;;;;;;;4.95;0.90;;;12.40;57.80;;;;;;5079405;28;20055;-75
2024/01/23 03:34:42;;;;;;;1.13;0.70;;;12.50;57.70;;;;;;5067367;28;20420;-75
2024/01/23 03:37:11;;;;;;;2.47;0.57;;;12.50;57.60;;;;;;5069281;28;20056;-75
2024/01/23 03:39:39;;;;;;;1.85;0.40;;;12.50;57.40;;;;;;5078306;28;20740;-75
2024/01/23 03:42:08;;;;;;;0.80;0.80;;;12.50;57.50;;;;;;5067641;28;20061;-75
2024/01/23 03:44:36;;;;;;;3.58;0.75;;;12.50;57.40;;;;;;5068013;28;20364;-92
2024/01/23 03:47:05;;;;;;;0.65;0.55;;;12.40;57.30;;;;;;5072393;28;20444;-74
2024/01/23 03:49:33;;;;;;;4.72;0.80;;;12.40;57.20;;;;;;5071363;28;20098;-76
2024/01/23 03:52:03;;;;;;;41.03;8.25;;;12.30;57.20;;;;;;5073037;28;20137;-76
2024/01/23 03:54:32;;;;;;;13.75;3.80;;;12.20;57.20;;;;;;5077053;28;20057;-76
2024/01/23 03:57:00;;;;;;;3.67;1.08;;;12.10;57.30;;;;;;5079208;28;20048;-76
2024/01/23 03:59:28;;;;;;;5.88;0.77;;;12.10;57.20;;;;;;5072083;28;20056;-76
2024/01/23 04:01:56;;;;;;;3.50;1.38;;;12.00;57.20;;;;;;5073966;28;20053;-75
2024/01/23 04:04:25;;;;;;;10.05;2.55;;;11.90;57.20;;;;;;5076915;28;20060;-74
2024/01/23 04:06:53;;;;;;;8.50;1.45;;;11.90;57.20;;;;;;5079192;28;20052;-75
2024/01/23 04:09:23;;;;;;;1.17;0.80;;;11.80;57.20;;;;;;5087815;28;20049;-76
2024/01/23 04:11:52;;;;;;;6.43;1.10;;;11.80;57.20;;;;;;5079232;28;20056;-77
2024/01/23 04:14:20;;;;;;;0.60;0.60;;;11.80;57.30;;;;;;5071582;28;20441;-76
2024/01/23 04:16:49;;;;;;;0.60;0.60;;;11.90;57.30;;;;;;5081161;28;20063;-76
2024/01/23 04:19:17;;;;;;;6.65;1.40;;;12.00;57.20;;;;;;5070581;28;21416;-75
2024/01/23 04:21:46;;;;;;;1.02;0.55;;;12.00;57.00;;;;;;5068176;28;20060;-77
2024/01/23 04:24:14;;;;;;;2.42;0.77;;;11.90;56.90;;;;;;5069524;28;20110;-76
2024/01/23 04:26:46;;;;;;;3.22;1.63;;;12.00;57.00;;;;;;5070892;28;20056;-77
2024/01/23 04:29:15;;;;;;;3.10;0.80;;;12.00;57.00;;;;;;5066266;28;20037;-79
2024/01/23 04:31:43;;;;;;;3.00;0.60;;;12.10;57.00;;;;;;5075694;28;20088;-79
2024/01/23 04:34:11;;;;;;;1.42;0.88;;;12.10;56.80;;;;;;5096780;28;20055;-80
2024/01/23 04:36:40;;;;;;;6.55;1.42;;;12.20;57.50;;;;;;5081434;28;20060;-79
2024/01/23 04:39:08;;;;;;;3.00;0.93;;;12.20;56.70;;;;;;5072664;28;20118;-81
2024/01/23 04:41:37;;;;;;;3.03;1.48;;;12.20;56.60;;;;;;5095176;27;20051;-79
2024/01/23 04:44:06;;;;;;;5.97;1.20;;;12.10;56.50;;;;;;5080228;28;20052;-80
2024/01/23 04:46:35;;;;;;;2.10;0.75;;;12.10;56.50;;;;;;5098027;28;20101;-79
2024/01/23 04:49:03;;;;;;;3.28;1.20;;;12.00;56.50;;;;;;5071062;28;20074;-81
2024/01/23 04:51:31;;;;;;;8.43;1.38;;;12.00;56.50;;;;;;5084209;27;20086;-80
2024/01/23 04:54:00;;;;;;;2.00;0.60;;;12.00;56.40;;;;;;5080231;28;20094;-79
2024/01/23 04:56:28;;;;;;;1.38;1.13;;;12.10;56.50;;;;;;5089111;28;20047;-80
2024/01/23 04:58:57;;;;;;;1.52;0.68;;;12.10;56.40;;;;;;5068406;28;20066;-81
2024/01/23 05:01:27;;;;;;;2.53;1.05;;;12.10;56.40;;;;;;5083115;28;20056;-79
2024/01/23 05:03:55;;;;;;;3.28;0.70;;;12.10;56.30;;;;;;5072879;28;20060;-83
2024/01/23 05:06:24;;;;;;;6.13;1.00;;;12.20;56.40;;;;;;5073542;28;20055;-77
2024/01/23 05:08:52;;;;;;;4.28;1.00;;;12.30;56.20;;;;;;5079658;28;20060;-77
2024/01/23 05:11:20;;;;;;;2.50;1.00;;;12.30;56.20;;;;;;5071018;28;20060;-80
2024/01/23 05:13:49;;;;;;;12.80;2.13;;;12.40;56.10;;;;;;5076796;28;20056;-79
2024/01/23 05:16:17;;;;;;;0.98;0.77;;;12.40;56.00;;;;;;5080337;28;20070;-81
2024/01/23 05:18:48;;;;;;;1.30;0.93;;;12.50;55.90;;;;;;5077442;28;20067;-79
2024/01/23 05:21:16;;;;;;;5.47;0.82;;;12.50;55.70;;;;;;5066588;28;22018;-80
2024/01/23 05:23:45;;;;;;;1.05;0.95;;;12.40;55.50;;;;;;5079874;28;20060;-79
2024/01/23 05:26:13;;;;;;;0.77;0.52;;;12.30;55.60;;;;;;5078464;28;20052;-79
2024/01/23 05:28:41;;;;;;;16.85;1.17;;;12.20;55.60;;;;;;5070261;28;20064;-78
2024/01/23 05:31:10;;;;;;;2.25;0.90;;;12.10;55.50;;;;;;5066279;28;20075;-79
2024/01/23 05:33:38;;;;;;;10.00;1.70;;;12.00;55.50;;;;;;5085567;28;20059;-77
2024/01/23 05:36:10;;;;;;;5.38;1.65;;;12.00;55.50;;;;;;5073136;28;20486;-78
2024/01/23 05:38:39;;;;;;;5.07;1.45;;;11.90;55.50;;;;;;5081900;27;20494;-79
2024/01/23 05:41:07;;;;;;;2.63;1.10;;;11.80;55.50;;;;;;5068951;28;20056;-78
2024/01/23 05:43:35;;;;;;;2.85;1.30;;;11.80;55.50;;;;;;5092927;27;20113;-78
2024/01/23 05:46:04;;;;;;;4.55;1.95;;;11.70;55.50;;;;;;5095353;28;20051;-77
2024/01/23 05:48:32;;;;;;;2.13;0.95;;;11.70;55.50;;;;;;5073930;28;20056;-78
2024/01/23 05:51:01;;;;;;;6.32;1.58;;;11.60;55.50;;;;;;5069030;28;20051;-80
2024/01/23 05:53:32;;;;;;;1.77;1.27;;;11.60;55.60;;;;;;5079469;27;20071;-77
2024/01/23 05:56:00;;;;;;;1.90;1.20;;;11.60;55.60;;;;;;5076756;28;20059;-75
2024/01/23 05:58:29;;;;;;;5.28;1.30;;;11.70;55.60;;;;;;5074506;28;20071;-71
2024/01/23 06:00:57;;;;;;;2.30;1.25;;;11.80;55.50;;;;;;5070641;27;20057;-76
2024/01/23 06:03:26;;;;;;;18.20;2.72;;;11.90;55.60;;;;;;5070050;27;20052;-77
2024/01/23 06:05:54;;;;;;;2.83;1.00;;;12.00;55.50;;;;;;5076657;28;20051;-74
2024/01/23 06:08:25;;;;;;;8.82;1.08;;;12.10;55.30;;;;;;5093508;27;20048;-75
2024/01/23 06:10:55;;;;;;;0.85;0.75;;;12.20;55.40;;;;;;5087526;28;21524;-74
2024/01/23 06:13:24;;;;;;;14.60;1.63;;;12.30;55.70;;;;;;5084526;27;20063;-76
2024/01/23 06:15:53;;;;;;;6.60;1.15;;;12.40;55.20;;;;;;5071513;28;20537;-75
2024/01/23 06:18:21;;;;;;;3.28;1.42;;;12.40;55.30;;;;;;5080932;27;20155;-74
2024/01/23 06:20:50;;;;;;;4.40;1.55;;;12.40;54.90;;;;;;5084901;28;20057;-73
2024/01/23 06:23:19;;;;;;;8.02;1.20;;;12.30;54.80;;;;;;5068982;28;20271;-91
2024/01/23 06:25:47;;;;;;;1.40;1.10;;;12.20;54.80;;;;;;5066088;28;20590;-76
2024/01/23 06:28:18;;;;;;;4.40;1.30;;;12.10;54.80;;;;;;5077297;28;20059;-77
2024/01/23 06:30:46;;;;;;;8.02;1.08;;;12.00;54.80;;;;;;5080677;27;20064;-77
2024/01/23 06:33:15;;;;;;;11.57;1.42;;;12.00;54.90;;;;;;5055947;28;20209;-68
2024/01/23 06:35:43;;;;;;;17.35;1.40;;;11.90;55.00;;;;;;5073703;28;20727;-67
2024/01/23 06:38:12;;;;;;;12.07;1.27;;;11.90;55.00;;;;;;5066179;28;20056;-67
2024/01/23 06:40:40;;;;;;;9.50;1.60;;;11.90;55.00;;;;;;5069859;28;20056;-66
2024/01/23 06:43:08;;;;;;;5.47;1.35;;;11.90;55.00;;;;;;5067049;28;20055;-69
2024/01/23 06:45:38;;;;;;;8.57;1.40;;;12.00;55.00;;;;;;5073050;28;20060;-67
2024/01/23 06:48:07;;;;;;;10.07;1.50;;;12.00;55.00;;;;;;5075509;27;20060;-68
2024/01/23 06:50:36;;;;;;;1.08;0.75;;;12.10;54.90;;;;;;5078883;28;20052;-67
2024/01/23 06:53:05;;;;;;;3.40;1.33;;;12.20;54.90;;;;;;5069991;28;20048;-66
2024/01/23 06:55:34;;;;;;;7.85;1.05;;;12.30;54.70;;;;;;5079302;28;20051;-67
2024/01/23 06:58:04;;;;;;;3.47;0.95;;;12.30;54.70;;;;;;5079243;28;20052;-67
2024/01/23 07:00:33;;;;;;;2.38;1.17;;;12.30;54.60;;;;;;5071529;28;20125;-66
2024/01/23 07:03:03;;;;;;;4.15;1.17;;;12.40;54.60;;;;;;5066839;28;20070;-66
2024/01/23 07:05:31;;;;;;;3.03;1.27;;;12.50;54.50;;;;;;5079752;28;20313;-67
2024/01/23 07:08:00;;;;;;;5.85;1.10;;;12.60;54.50;;;;;;5074245;28;20056;-66
2024/01/23 07:10:29;;;;;;;4.38;1.00;;;12.60;54.30;;;;;;5080738;28;20153;-66
2024/01/23 07:12:57;;;;;;;15.10;1.85;;;12.70;54.20;;;;;;5076231;28;20066;-64
2024/01/23 07:15:26;;;;;;;2.38;0.82;;;12.70;54.30;;;;;;5074185;28;20071;-66
2024/01/23 07:17:54;;;;;;;12.60;1.48;;;12.70;54.40;;;;;;5066394;28;20052;-66
2024/01/23 07:20:24;;;;;;;32.72;1.80;;;12.80;54.10;;;;;;5066160;28;20067;-66
2024/01/23 07:22:52;;;;;;;2.35;1.58;;;12.80;53.90;;;;;;5074293;28;20067;-64
2024/01/23 07:25:21;;;;;;;4.93;1.20;;;12.90;53.90;;;;;;5074289;28;20076;-64
2024/01/23 07:27:49;;;;;;;5.55;1.15;;;12.90;53.80;;;;;;5074807;28;20142;-66
2024/01/23 07:30:19;;;;;;;10.85;1.00;;;13.00;54.00;;;;;;5069153;28;20142;-67
2024/01/23 07:32:49;;;;;;;5.97;1.65;;;13.00;53.70;;;;;;5094789;28;20052;-67
2024/01/23 07:35:17;;;;;;;11.77;2.00;;;13.10;53.60;;;;;;5082423;27;20050;-65
2024/01/23 07:37:47;;;;;;;1.25;1.00;;;13.10;53.60;;;;;;5080709;28;20505;-65
2024/01/23 07:40:16;;;;;;;9.93;1.35;;;13.20;53.50;;;;;;5078503;28;20086;-65
2024/01/23 07:42:44;;;;;;;9.80;1.92;;;13.20;54.10;;;;;;5075853;28;20134;-80
2024/01/23 07:45:13;;;;;;;2.75;0.88;;;13.20;53.30;;;;;;5066871;28;20059;-68
2024/01/23 07:47:41;;;;;;;7.90;1.13;;;13.30;53.20;;;;;;5071392;28;20123;-66
2024/01/23 07:50:12;;;;;;;13.18;1.38;;;13.30;53.20;;;;;;5076145;27;20105;-66
2024/01/23 07:52:41;;;;;;;5.00;1.17;;;13.30;53.10;;;;;;5075128;28;20087;-67
2024/01/23 07:55:10;;;;;;;11.52;1.30;;;13.30;53.00;;;;;;5079677;28;20173;-66
2024/01/23 07:57:39;;;;;;;6.38;1.30;;;13.20;53.30;;;;;;5082962;28;20147;-66
2024/01/23 08:00:17;;;;;;;6.82;0.90;;;13.20;53.10;;;;;;5071610;28;20048;-65
2024/01/23 08:02:45;;;;;;;1.83;0.80;;;13.20;53.10;;;;;;5070032;28;20147;-65
2024/01/23 08:05:14;;;;;;;3.88;0.73;;;13.20;53.10;;;;;;5064137;28;20842;-64
2024/01/23 08:07:42;;;;;;;1.83;1.08;;;13.10;53.10;;;;;;5088508;28;20056;-65
2024/01/23 08:10:13;;;;;;;4.85;0.82;;;13.10;53.10;;;;;;5072764;28;20166;-67
2024/01/23 08:12:42;;;;;;;5.80;1.50;;;13.10;53.10;;;;;;5088622;27;20054;-65
2024/01/23 08:15:10;;;;;;;5.00;0.98;;;13.10;53.10;;;;;;5069034;28;20056;-66
2024/01/23 08:17:39;;;;;;;2.25;1.30;;;13.10;53.10;;;;;;5079451;28;20497;-64
2024/01/23 08:20:09;;;;;;;5.57;1.45;;;13.00;53.10;;;;;;5094955;27;20160;-65
2024/01/23 08:22:37;;;;;;;0.85;0.75;;;13.00;53.20;;;;;;5069779;28;20386;-67
2024/01/23 08:25:06;;;;;;;6.80;1.00;;;13.00;53.20;;;;;;5065535;28;20053;-64
2024/01/23 08:27:36;;;;;;;1.85;1.02;;;13.00;53.30;;;;;;5071007;28;20627;-69
2024/01/23 08:30:05;;;;;;;1.00;0.90;;;13.00;53.30;;;;;;5072162;28;20036;-67
2024/01/23 08:32:34;;;;;;;0.93;0.90;;;13.00;53.40;;;;;;5065810;28;20048;-67
2024/01/23 08:35:02;;;;;;;2.65;0.90;;;13.00;53.20;;;;;;5056754;28;20865;-65
2024/01/23 08:37:30;;;;;;;0.95;0.70;;;12.90;53.10;;;;;;5070620;28;20147;-65
2024/01/23 08:39:59;;;;;;;8.98;1.50;;;12.80;53.10;;;;;;5070308;28;20304;-64
2024/01/23 08:42:28;;;;;;;4.18;1.10;;;12.80;53.30;;;;;;5067643;28;20049;-66
2024/01/23 08:44:58;;;;;;;6.40;1.10;;;12.70;53.50;;;;;;5073546;27;20044;-66
2024/01/23 08:47:26;;;;;;;4.60;1.13;;;12.70;53.40;;;;;;5090948;27;20062;-67
2024/01/23 08:49:55;;;;;;;5.03;0.95;;;12.70;53.50;;;;;;5069785;28;20147;-66
2024/01/23 08:52:23;;;;;;;10.25;1.63;;;12.70;53.70;;;;;;5064512;28;20045;-64
2024/01/23 08:54:52;;;;;;;11.50;2.78;;;12.60;53.60;;;;;;5070269;28;20056;-66
2024/01/23 08:57:22;;;;;;;3.40;1.70;;;12.50;53.80;;;;;;5077898;28;20066;-67
2024/01/23 08:59:51;;;;;;;1.88;0.85;;;12.40;53.90;;;;;;5065672;28;20126;-66
2024/01/23 09:02:20;;;;;;;5.70;1.55;;;12.30;53.90;;;;;;5067490;28;20060;-67
2024/01/23 09:04:49;;;;;;;5.75;1.30;;;12.30;54.20;;;;;;5071726;28;20760;-68
2024/01/23 09:07:18;;;;;;;0.65;0.65;;;12.30;54.20;;;;;;5085744;28;20060;-64
2024/01/23 09:09:47;;;;;;;22.38;1.90;;;12.30;54.20;;;;;;5079040;27;20549;-66
2024/01/23 09:12:16;;;;;;;8.88;0.95;;;12.20;54.20;;;;;;5071039;28;20052;-65
2024/01/23 09:14:45;;;;;;;3.63;0.95;;;12.30;54.20;;;;;;5080091;28;20051;-65
2024/01/23 09:17:13;;;;;;;3.05;0.50;;;12.30;54.40;;;;;;5066663;28;20117;-65
2024/01/23 09:19:42;;;;;;;9.10;1.83;;;12.40;54.20;;;;;;5091681;28;20048;-67
2024/01/23 09:22:12;;;;;;;12.68;1.52;;;12.40;54.10;;;;;;5070954;28;20040;-65
2024/01/23 09:24:41;;;;;;;2.90;0.88;;;12.50;54.10;;;;;;5075679;28;20064;-65
2024/01/23 09:27:10;;;;;;;1.92;1.23;;;12.50;54.10;;;;;;5068049;28;20158;-65
2024/01/23 09:29:39;;;;;;;4.15;1.27;;;12.50;54.10;;;;;;5079313;28;20138;-65
2024/01/23 09:32:07;;;;;;;9.27;1.05;;;12.50;53.90;;;;;;5075141;28;20059;-65
2024/01/23 09:34:37;;;;;;;3.13;1.05;;;12.50;54.30;;;;;;5072388;28;20435;-66
2024/01/23 09:37:07;;;;;;;3.53;1.38;;;12.50;54.10;;;;;;5062656;28;20056;-67
2024/01/23 09:39:35;;;;;;;1.65;0.98;;;12.40;54.10;;;;;;5073250;28;20133;-65
2024/01/23 09:42:04;;;;;;;2.78;1.55;;;12.40;54.30;;;;;;5066750;28;20060;-65
2024/01/23 09:44:33;;;;;;;2.58;1.25;;;12.30;54.30;;;;;;5078514;27;20048;-65
2024/01/23 09:47:03;;;;;;;13.30;3.70;;;12.30;54.30;;;;;;5060290;28;20056;-67
2024/01/23 09:49:35;;;;;;;5.38;1.83;;;12.20;54.40;;;;;;5071388;28;20485;-67
2024/01/23 09:52:09;;;;;;;4.87;1.93;;;12.10;54.40;;;;;;5068447;28;20048;-66
2024/01/23 09:54:37;;;;;;;2.15;1.23;;;11.90;54.50;;;;;;5088878;28;20071;-65
2024/01/23 09:57:07;;;;;;;9.48;0.88;;;11.90;54.70;;;;;;5062630;28;20144;-66
2024/01/23 09:59:36;;;;;;;6.65;0.95;;;11.70;54.70;;;;;;5092147;28;20059;-65
2024/01/23 10:02:06;;;;;;;2.65;0.93;;;11.60;54.90;;;;;;5070408;28;20052;-74
2024/01/23 10:04:36;;;;;;;2.42;1.25;;;11.50;55.00;;;;;;5076468;28;20060;-65
2024/01/23 10:07:09;;;;;;;1.90;1.17;;;11.50;55.10;;;;;;5087515;28;20442;-65
2024/01/23 10:09:39;;;;;;;0.95;0.85;;;11.50;55.10;;;;;;5074486;28;20074;-66
2024/01/23 10:12:08;;;;;;;3.05;1.73;;;11.40;55.00;;;;;;5075758;28;20087;-64
2024/01/23 10:14:42;;;;;;;6.32;1.05;;;11.30;55.10;;;;;;5077510;28;20064;-64
2024/01/23 10:17:11;;;;;;;2.22;0.93;;;11.20;55.30;;;;;;5072202;27;20048;-78
2024/01/23 10:19:43;;;;;;;5.97;0.82;;;11.20;55.40;;;;;;5075401;28;20052;-64
2024/01/23 10:22:15;;;;;;;3.70;1.00;;;11.10;55.30;;;;;;5086083;27;20056;-65
2024/01/23 10:24:43;;;;;;;2.13;1.45;;;11.10;55.70;;;;;;5079721;28;20048;-77
2024/01/23 10:27:11;;;;;;;19.23;1.15;;;11.00;55.30;;;;;;5077338;28;20155;-66
2024/01/23 10:29:40;;;;;;;13.38;1.25;;;11.00;55.50;;;;;;5085642;27;20518;-68
2024/01/23 10:32:09;;;;;;;3.63;1.25;;;10.90;55.60;;;;;;5081432;28;20056;-66
2024/01/23 10:34:37;;;;;;;2.13;0.80;;;10.90;55.70;;;;;;5075758;28;20189;-69
2024/01/23 10:37:07;;;;;;;9.52;1.13;;;11.00;55.80;;;;;;5071514;28;20117;-66
2024/01/23 10:39:37;;;;;;;2.58;1.60;;;10.90;55.80;;;;;;5077305;28;20059;-65
2024/01/23 10:42:07;;;;;;;1.65;1.00;;;10.90;55.80;;;;;;5074217;28;20051;-65
2024/01/23 10:44:38;;;;;;;4.00;2.20;;;10.90;55.80;;;;;;5065648;28;20151;-67
2024/01/23 10:47:06;;;;;;;1.85;1.02;;;10.80;55.80;;;;;;5063665;28;20076;-69
2024/01/23 10:49:37;;;;;;;4.38;1.17;;;10.70;55.90;;;;;;5091987;28;20044;-68
2024/01/23 10:52:09;;;;;;;9.43;1.05;;;10.60;56.60;;;;;;5065778;28;20064;-68
2024/01/23 10:54:44;;;;;;;10.00;1.63;;;10.60;56.10;;;;;;5075504;28;20109;-71
2024/01/23 10:57:21;;;;;;;2.38;1.08;;;10.50;56.20;;;;;;5081255;28;20591;-71
2024/01/23 10:59:49;;;;;;;8.60;2.35;;;10.50;56.30;;;;;;5071420;28;20106;-69
2024/01/23 11:02:26;;;;;;;9.00;1.02;;;10.40;56.10;;;;;;5063346;28;20152;-68
2024/01/23 11:04:55;;;;;;;1.90;0.70;;;10.30;56.30;;;;;;5073017;28;20512;-66
2024/01/23 11:07:34;;;;;;;1.85;1.30;;;10.30;56.40;;;;;;5090754;28;20088;-65
2024/01/23 11:10:12;;;;;;;2.33;1.20;;;10.30;56.70;;;;;;5069435;28;20513;-66
2024/01/23 11:12:47;;;;;;;10.63;0.95;;;10.50;56.90;;;;;;5072213;28;20077;-66
2024/01/23 11:15:17;;;;;;;1.45;1.20;;;10.50;56.70;;;;;;5066117;28;22778;-65
2024/01/23 11:17:46;;;;;;;1.60;0.73;;;10.60;56.70;;;;;;5074778;28;20477;-69
2024/01/23 11:20:18;;;;;;;4.35;2.30;;;10.60;56.70;;;;;;5070662;28;20059;-65
2024/01/23 11:22:46;;;;;;;1.30;1.08;;;10.60;56.80;;;;;;5074705;28;20064;-65
2024/01/23 11:25:19;;;;;;;1.33;1.23;;;10.70;57.00;;;;;;5070847;28;20729;-65
2024/01/23 11:27:49;;;;;;;2.83;1.75;;;11.00;57.40;;;;;;5076105;28;20057;-70
2024/01/23 11:30:18;;;;;;;1.17;0.90;;;11.40;57.40;;;;;;5082250;28;20543;-66
2024/01/23 11:32:46;;;;;;;6.32;1.90;;;11.80;56.90;;;;;;5078503;28;20152;-66
2024/01/23 11:35:15;;;;;;;1.05;0.95;;;11.90;56.50;;;;;;5073387;27;20433;-67
2024/01/23 11:37:49;;;;;;;6.15;1.98;;;12.10;57.30;;;;;;5074123;28;20573;-67
2024/01/23 11:40:34;;;;;;;4.00;1.27;;;12.20;56.80;;;;;;5071438;28;20512;-68
2024/01/23 11:43:07;;;;;;;7.30;2.22;;;12.20;56.40;;;;;;5071234;27;20127;-68
2024/01/23 11:45:36;;;;;;;3.88;1.55;;;12.20;56.30;;;;;;5076430;27;20152;-66
2024/01/23 11:48:06;;;;;;;7.22;2.50;;;12.30;56.50;;;;;;5073332;28;20056;-67
2024/01/23 11:50:36;;;;;;;3.40;2.15;;;12.40;56.50;;;;;;5074903;28;20059;-68
2024/01/23 11:53:05;;;;;;;7.97;5.07;;;12.50;56.20;;;;;;5072911;27;20163;-70
2024/01/23 11:55:40;;;;;;;19.30;4.43;;;12.40;56.00;;;;;;5070773;28;20054;-68
2024/01/23 11:58:11;;;;;;;5.15;3.40;;;12.40;56.30;;;;;;5088711;27;20105;-68
2024/01/23 12:00:39;;;;;;;11.00;4.15;;;12.50;56.50;;;;;;5074119;28;20047;-68
2024/01/23 12:03:20;;;;;;;14.75;5.93;;;12.50;56.20;;;;;;5079712;27;20040;-68
2024/01/23 12:05:52;;;;;;;18.60;6.47;;;12.50;56.00;;;;;;5093273;28;20167;-66
2024/01/23 12:08:21;;;;;;;75.97;18.75;;;12.50;56.20;;;;;;5079059;28;20076;-68
2024/01/23 12:10:50;;;;;;;21.92;6.93;;;12.50;56.40;;;;;;5076993;28;20071;-68
2024/01/23 12:13:23;;;;;;;42.95;8.68;;;12.70;56.40;;;;;;5074808;28;20596;-70
2024/01/23 12:15:51;;;;;;;26.83;6.03;;;12.90;56.40;;;;;;5079523;28;20154;-70
2024/01/23 12:18:22;;;;;;;7.72;2.33;;;13.10;56.20;;;;;;5092699;27;20109;-76
2024/01/23 12:20:54;;;;;;;6.43;2.47;;;13.20;56.00;;;;;;5089418;27;20052;-69
2024/01/23 12:23:24;;;;;;;10.02;2.65;;;13.30;55.90;;;;;;5076943;28;20051;-69
2024/01/23 12:25:56;;;;;;;17.48;4.22;;;13.30;55.70;;;;;;5072037;28;20039;-70
2024/01/23 12:28:25;;;;;;;12.73;4.55;;;13.40;55.80;;;;;;5075589;28;20090;-70
2024/01/23 12:30:54;;;;;;;24.20;4.53;;;13.50;55.80;;;;;;5094437;27;20064;-71
2024/01/23 12:33:24;;;;;;;9.02;4.45;;;13.50;55.60;;;;;;5078801;28;20056;-70
2024/01/23 12:35:53;;;;;;;6.57;3.13;;;13.60;55.70;;;;;;5088221;28;20050;-70
2024/01/23 12:38:22;;;;;;;6.00;2.42;;;13.70;55.50;;;;;;5081110;28;20063;-69
2024/01/23 12:40:53;;;;;;;14.13;2.58;;;13.70;55.40;;;;;;5073796;28;20044;-72
2024/01/23 12:43:25;;;;;;;4.72;1.95;;;13.60;55.30;;;;;;5091342;28;20109;-71
2024/01/23 12:45:53;;;;;;;9.70;1.90;;;13.60;55.50;;;;;;5077158;28;20070;-72
2024/01/23 12:48:23;;;;;;;3.35;2.03;;;13.60;55.50;;;;;;5082785;28;20063;-81
2024/01/23 12:50:55;;;;;;;3.22;1.20;;;13.80;55.60;;;;;;5076656;28;20067;-70
2024/01/23 12:53:25;;;;;;;4.07;1.63;;;13.90;55.50;;;;;;5076700;28;20071;-71
2024/01/23 12:55:55;;;;;;;2.97;2.05;;;14.10;55.40;;;;;;5092071;27;20079;-73